createdAt,value
2019-01-15T00:03:53.469Z,99999.93
2019-01-15T00:08:57.270Z,100002.97
2019-01-15T00:14:01.101Z,100002.97
2019-01-15T00:19:04.986Z,100018.69
2019-01-15T00:24:08.768Z,100028.56
2019-01-15T00:29:12.558Z,100032.12
2019-01-15T00:34:16.416Z,100035.39
2019-01-15T00:39:20.323Z,100035.39
2019-01-15T00:44:24.157Z,100034.91
2019-01-15T00:49:28.074Z,100041.13
2019-01-15T00:54:31.908Z,100041.73
2019-01-15T00:59:35.714Z,100045.66
2019-01-15T01:04:39.584Z,100050.63
2019-01-15T01:09:43.425Z,100054.16
2019-01-15T01:14:47.306Z,100053.67
2019-01-15T01:19:51.092Z,100069.88
2019-01-15T01:24:54.911Z,100069.88
2019-01-15T01:29:58.766Z,100071.93
2019-01-15T01:35:02.642Z,100070.59
2019-01-15T01:40:07.843Z,100066.70
2019-01-15T01:45:12.384Z,100069.38
2019-01-15T01:50:16.202Z,100069.02
2019-01-15T01:55:20.028Z,100072.80
2019-01-15T02:00:24.038Z,100078.86
2019-01-15T02:05:27.823Z,100096.89
2019-01-15T02:10:31.650Z,100096.89
2019-01-15T02:15:35.469Z,100101.16
2019-01-15T02:20:39.252Z,100100.16
2019-01-15T02:25:43.023Z,100098.36
2019-01-15T02:30:47.071Z,100098.36
2019-01-15T02:35:50.870Z,100108.31
2019-01-15T02:40:54.660Z,100106.73
2019-01-15T02:45:58.568Z,100106.73
2019-01-15T02:51:02.354Z,100108.68
2019-01-15T02:56:06.131Z,100101.25
2019-01-15T03:01:09.948Z,100111.61
2019-01-15T03:06:13.877Z,100111.61
2019-01-15T03:11:17.655Z,100109.62
2019-01-15T03:16:21.518Z,100109.62
2019-01-15T03:21:26.160Z,100114.83
2019-01-15T03:26:30.158Z,100116.75
2019-01-15T03:31:33.943Z,100116.75
2019-01-15T03:36:37.856Z,100117.36
2019-01-15T03:41:41.644Z,100122.53
2019-01-15T03:46:45.459Z,100122.53
2019-01-15T03:51:49.244Z,100115.41
2019-01-15T03:56:53.498Z,100117.72
2019-01-15T04:01:57.286Z,100117.72
2019-01-15T04:07:01.276Z,100133.55
2019-01-15T04:12:05.063Z,100133.55
2019-01-15T04:17:08.898Z,100146.17
2019-01-15T04:22:12.744Z,100162.72
2019-01-15T04:27:16.561Z,100158.09
2019-01-15T04:32:20.329Z,100158.09
2019-01-15T04:37:24.210Z,100154.20
2019-01-15T04:42:28.033Z,100148.97
2019-01-15T04:47:31.971Z,100145.44
2019-01-15T04:52:36.381Z,100145.44
2019-01-15T04:57:40.423Z,100149.09
2019-01-15T05:02:44.376Z,100147.83
2019-01-15T05:07:48.273Z,100150.99
2019-01-15T05:12:52.049Z,100154.28
2019-01-15T05:17:55.838Z,100161.45
2019-01-15T05:22:59.632Z,100168.27
2019-01-15T05:28:03.409Z,100159.10
2019-01-15T05:33:07.296Z,100161.78
2019-01-15T05:38:11.254Z,100168.47
2019-01-15T05:43:16.883Z,100161.53
2019-01-15T05:48:24.606Z,100161.53
2019-01-15T05:53:28.371Z,100163.59
2019-01-15T05:58:32.174Z,100154.70
2019-01-15T06:03:36.072Z,100154.70
2019-01-15T06:08:39.941Z,100156.05
2019-01-15T06:13:43.863Z,100151.55
2019-01-15T06:18:47.738Z,100153.25
2019-01-15T06:23:51.523Z,100153.25
2019-01-15T06:28:55.483Z,100157.02
2019-01-15T06:33:59.348Z,100162.73
2019-01-15T06:39:04.297Z,100160.06
2019-01-15T06:44:08.108Z,100174.91
2019-01-15T06:49:11.919Z,100177.09
2019-01-15T06:54:15.731Z,100177.18
2019-01-15T06:59:19.529Z,100183.02
2019-01-15T07:04:23.384Z,100183.02
2019-01-15T07:09:27.245Z,100184.11
2019-01-15T07:14:31.043Z,100185.69
2019-01-15T07:19:34.829Z,100179.68
2019-01-15T07:24:38.667Z,100190.87
2019-01-15T07:29:42.476Z,100198.53
2019-01-15T07:34:46.278Z,100198.53
2019-01-15T07:39:50.156Z,100199.98
2019-01-15T07:44:54.015Z,100192.79
2019-01-15T07:49:57.835Z,100192.79
2019-01-15T07:55:01.632Z,100202.05
2019-01-15T08:00:06.939Z,100202.05
2019-01-15T08:05:11.185Z,100234.37
2019-01-15T08:10:15.628Z,100245.77
2019-01-15T08:15:21.286Z,100217.53
2019-01-15T08:20:25.079Z,100217.53
2019-01-15T08:25:28.898Z,100188.28
2019-01-15T08:30:35.122Z,100188.28
2019-01-15T08:35:39.007Z,100166.13
2019-01-15T08:40:42.843Z,100166.16
2019-01-15T08:45:46.643Z,100166.16
2019-01-15T08:50:52.471Z,100150.80
2019-01-15T08:55:58.060Z,100147.75
2019-01-15T09:01:01.837Z,100140.76
2019-01-15T09:06:05.615Z,100140.76
2019-01-15T09:11:09.386Z,100144.17
2019-01-15T09:16:13.189Z,100142.78
2019-01-15T09:21:17.056Z,100142.78
2019-01-15T09:26:20.914Z,100134.80
2019-01-15T09:31:24.699Z,100126.13
2019-01-15T09:36:28.498Z,100121.09
2019-01-15T09:41:32.634Z,100121.09
2019-01-15T09:46:36.444Z,100125.56
2019-01-15T09:51:40.220Z,100125.06
2019-01-15T09:56:44.004Z,100086.12
2019-01-15T10:01:47.827Z,100086.12
2019-01-15T10:06:51.666Z,100079.03
2019-01-15T10:11:55.530Z,100086.23
2019-01-15T10:16:59.315Z,100079.28
2019-01-15T10:22:03.173Z,100076.48
2019-01-15T10:27:07.731Z,100076.48
2019-01-15T10:32:42.338Z,100075.61
2019-01-15T10:37:46.134Z,100067.07
2019-01-15T10:42:49.922Z,100055.76
2019-01-15T10:47:53.731Z,100055.76
2019-01-15T10:52:57.525Z,100043.80
2019-01-15T10:58:01.350Z,100025.95
2019-01-15T11:03:05.152Z,100028.41
2019-01-15T11:08:08.996Z,100026.24
2019-01-15T11:13:12.853Z,100022.58
2019-01-15T11:18:16.739Z,100028.47
2019-01-15T11:23:20.560Z,100020.88
2019-01-15T11:28:24.527Z,100020.88
2019-01-15T11:33:28.402Z,100017.73
2019-01-15T11:38:32.229Z,100020.52
2019-01-15T11:43:36.105Z,100013.55
2019-01-15T11:48:39.953Z,100013.55
2019-01-15T11:53:43.845Z,100005.38
2019-01-15T11:58:47.912Z,100000.76
2019-01-15T12:04:02.550Z,99991.63
2019-01-15T12:09:32.129Z,99991.40
2019-01-15T12:14:57.776Z,99991.40
2019-01-15T12:20:15.084Z,99992.92
2019-01-15T12:25:53.467Z,99997.62
2019-01-15T12:31:22.267Z,99959.21
2019-01-15T12:36:39.559Z,99959.21
2019-01-15T12:42:02.342Z,99962.55
2019-01-15T12:47:24.249Z,99949.92
2019-01-15T12:52:45.850Z,99949.59
2019-01-15T12:58:07.323Z,99936.62
2019-01-15T13:03:29.040Z,99947.78
2019-01-15T13:08:54.200Z,99944.42
2019-01-15T13:14:05.387Z,99944.42
2019-01-15T13:19:26.878Z,99949.57
2019-01-15T13:24:58.759Z,99953.10
2019-01-15T13:30:10.229Z,99956.41
2019-01-15T13:35:25.089Z,99949.56
2019-01-15T13:40:50.205Z,99949.56
2019-01-15T13:46:08.974Z,99942.14
2019-01-15T13:51:30.729Z,99945.94
2019-01-15T13:56:52.281Z,99924.53
2019-01-15T14:02:23.825Z,99921.62
2019-01-15T14:07:37.900Z,99921.62
2019-01-15T14:12:59.535Z,99914.56
2019-01-15T14:18:20.937Z,99898.84
2019-01-15T14:23:43.724Z,99898.84
2019-01-15T14:28:54.932Z,99897.79
2019-01-15T14:34:23.243Z,99891.23
2019-01-15T14:39:48.780Z,99891.23
2019-01-15T14:45:15.630Z,99888.16
2019-01-15T14:50:41.453Z,99914.95
2019-01-15T14:56:05.602Z,99888.13
2019-01-15T15:01:43.549Z,99903.64
2019-01-15T15:06:59.446Z,99879.23
2019-01-15T15:12:21.049Z,99887.75
2019-01-15T15:17:39.394Z,99887.75
2019-01-15T15:23:00.632Z,99880.97
2019-01-15T15:28:32.324Z,99864.62
2019-01-15T15:33:53.939Z,99864.62
2019-01-15T15:39:13.496Z,99872.83
2019-01-15T15:44:30.759Z,99872.83
2019-01-15T15:49:54.183Z,99860.19
2019-01-15T15:55:16.216Z,99863.72
2019-01-15T16:00:37.798Z,99855.94
2019-01-15T16:06:06.398Z,99864.44
2019-01-15T16:11:32.189Z,99869.11
2019-01-15T16:17:00.738Z,99858.02
2019-01-15T16:22:22.176Z,99857.73
2019-01-15T16:27:44.596Z,99852.31
2019-01-15T16:33:05.986Z,99852.31
2019-01-15T16:38:37.598Z,99840.78
2019-01-15T16:44:12.736Z,99844.62
2019-01-15T16:49:31.320Z,99844.98
2019-01-15T16:54:53.027Z,99846.32
2019-01-15T17:00:14.739Z,99846.32
2019-01-15T17:05:42.219Z,99839.11
2019-01-15T17:11:08.043Z,99835.78
2019-01-15T17:16:34.698Z,99835.78
2019-01-15T17:22:00.279Z,99835.98
2019-01-15T17:27:23.067Z,99835.98
2019-01-15T17:32:39.098Z,99839.07
2019-01-15T17:37:53.362Z,99840.27
2019-01-15T17:43:16.117Z,99839.84
2019-01-15T17:48:40.011Z,99839.84
2019-01-15T17:54:02.773Z,99844.06
2019-01-15T17:59:24.256Z,99836.14
2019-01-15T18:04:41.759Z,99835.29
2019-01-15T18:10:04.365Z,99834.86
2019-01-15T18:15:29.561Z,99835.03
2019-01-15T18:21:04.663Z,99835.03
2019-01-15T18:26:39.943Z,99838.54
2019-01-15T18:31:56.196Z,99834.33
2019-01-15T18:37:28.491Z,99823.14
2019-01-15T18:42:50.029Z,99823.14
2019-01-15T18:48:12.770Z,99824.20
2019-01-15T18:53:37.919Z,99819.33
2019-01-15T18:58:52.602Z,99817.72
2019-01-15T19:04:30.552Z,99817.72
2019-01-15T19:09:57.052Z,99815.91
2019-01-15T19:15:18.514Z,99821.12
2019-01-15T19:20:30.803Z,99821.12
2019-01-15T19:26:02.472Z,99818.16
2019-01-15T19:31:31.102Z,99821.91
2019-01-15T19:36:53.275Z,99824.83
2019-01-15T19:42:07.120Z,99824.83
2019-01-15T19:47:22.633Z,99835.94
2019-01-15T19:52:40.169Z,99836.36
2019-01-15T19:58:12.106Z,99836.36
2019-01-15T20:03:33.753Z,99838.75
2019-01-15T20:09:02.338Z,99838.75
2019-01-15T20:14:29.150Z,99845.22
2019-01-15T20:19:50.753Z,99852.54
2019-01-15T20:25:12.629Z,99852.86
2019-01-15T20:30:44.457Z,99857.35
2019-01-15T20:36:06.239Z,99866.99
2019-01-15T20:41:27.968Z,99866.99
2019-01-15T20:46:49.709Z,99864.04
2019-01-15T20:52:18.356Z,99864.04
2019-01-15T20:57:40.059Z,99864.56
2019-01-15T21:03:03.280Z,99870.64
2019-01-15T21:08:17.953Z,99870.64
2019-01-15T21:13:39.621Z,99872.75
2019-01-15T21:19:14.678Z,99863.87
2019-01-15T21:24:40.212Z,99871.23
2019-01-15T21:30:06.038Z,99871.23
2019-01-15T21:35:33.178Z,99875.23
2019-01-15T21:40:48.911Z,99871.23
2019-01-15T21:46:17.676Z,99853.77
2019-01-15T21:51:39.445Z,99877.16
2019-01-15T21:57:01.139Z,99876.80
2019-01-15T22:02:35.731Z,99876.80
2019-01-15T22:07:58.498Z,99871.08
2019-01-15T22:13:27.380Z,99877.58
2019-01-15T22:19:05.362Z,99867.20
2019-01-15T22:24:31.135Z,99869.41
2019-01-15T22:30:00.102Z,99862.95
2019-01-15T22:35:23.855Z,99866.28
2019-01-15T22:40:52.155Z,99866.28
2019-01-15T22:46:27.262Z,99870.30
2019-01-15T22:51:49.135Z,99863.97
2019-01-15T22:57:00.146Z,99859.46
2019-01-15T23:02:29.893Z,99859.46
2019-01-15T23:07:56.004Z,99864.10
2019-01-15T23:13:30.876Z,99861.91
2019-01-15T23:18:45.173Z,99863.13
2019-01-15T23:24:01.404Z,99863.13
2019-01-15T23:29:16.256Z,99857.77
2019-01-15T23:34:37.954Z,99857.77
2019-01-15T23:40:06.741Z,99853.63
2019-01-15T23:45:26.000Z,99853.03
2019-01-15T23:50:49.154Z,99853.03
2019-01-15T23:56:10.758Z,99855.84
